createdAt,value
2022-11-09T00:00:24.852Z,13.73
2022-11-09T00:02:51.140Z,13.75
2022-11-09T00:05:17.449Z,13.78
2022-11-09T00:07:43.732Z,13.83
2022-11-09T00:10:10.186Z,13.83
2022-11-09T00:12:36.573Z,13.87
2022-11-09T00:15:04.583Z,13.84
2022-11-09T00:17:30.941Z,13.84
2022-11-09T00:19:57.217Z,13.78
2022-11-09T00:22:23.519Z,13.80
2022-11-09T00:24:49.864Z,13.79
2022-11-09T00:27:17.794Z,13.84
2022-11-09T00:29:44.269Z,13.81
2022-11-09T00:32:11.901Z,13.81
2022-11-09T00:34:38.197Z,13.78
2022-11-09T00:37:04.486Z,13.75
2022-11-09T00:39:30.790Z,13.81
2022-11-09T00:41:57.055Z,13.80
2022-11-09T00:44:23.341Z,13.82
2022-11-09T00:46:49.603Z,13.84
2022-11-09T00:49:17.226Z,13.85
2022-11-09T00:51:43.527Z,13.85
2022-11-09T00:54:09.935Z,13.82
2022-11-09T00:56:36.235Z,13.79
2022-11-09T00:59:02.532Z,13.77
2022-11-09T01:01:28.917Z,13.76
2022-11-09T01:03:55.211Z,13.77
2022-11-09T01:06:24.121Z,13.79
2022-11-09T01:08:50.587Z,13.75
2022-11-09T01:11:18.294Z,13.77
2022-11-09T01:13:44.805Z,13.83
2022-11-09T01:16:12.407Z,13.81
2022-11-09T01:18:39.098Z,13.75
2022-11-09T01:21:06.057Z,13.73
2022-11-09T01:23:33.891Z,13.69
2022-11-09T01:26:00.289Z,13.73
2022-11-09T01:28:26.860Z,13.68
2022-11-09T01:30:53.547Z,13.66
2022-11-09T01:33:19.994Z,13.62
2022-11-09T01:35:46.495Z,13.64
2022-11-09T01:38:12.793Z,13.64
2022-11-09T01:40:40.694Z,13.62
2022-11-09T01:43:14.159Z,13.69
2022-11-09T01:45:41.109Z,13.69
2022-11-09T01:48:11.585Z,13.74
2022-11-09T01:50:41.342Z,13.75
2022-11-09T01:53:09.869Z,13.83
2022-11-09T01:55:36.808Z,13.83
2022-11-09T01:58:06.094Z,13.80
2022-11-09T02:00:33.834Z,13.87
2022-11-09T02:03:02.388Z,13.90
2022-11-09T02:05:30.879Z,13.93
2022-11-09T02:07:57.942Z,13.96
2022-11-09T02:10:26.784Z,13.90
2022-11-09T02:12:53.333Z,13.89
2022-11-09T02:15:21.803Z,13.88
2022-11-09T02:17:50.124Z,13.86
2022-11-09T02:20:18.130Z,13.82
2022-11-09T02:22:44.855Z,13.85
2022-11-09T02:25:12.623Z,13.82
2022-11-09T02:27:39.563Z,13.78
2022-11-09T02:30:06.490Z,13.76
2022-11-09T02:32:33.023Z,13.70
2022-11-09T02:34:59.365Z,13.62
2022-11-09T02:37:28.278Z,13.62
2022-11-09T02:39:55.053Z,13.59
2022-11-09T02:42:21.951Z,13.52
2022-11-09T02:44:49.460Z,13.50
2022-11-09T02:47:15.765Z,13.48
2022-11-09T02:49:42.062Z,13.43
2022-11-09T02:52:08.443Z,13.40
2022-11-09T02:54:36.070Z,13.40
2022-11-09T02:57:02.381Z,13.36
2022-11-09T02:59:28.673Z,13.30
2022-11-09T03:01:54.990Z,13.29
2022-11-09T03:04:21.314Z,13.23
2022-11-09T03:06:47.672Z,13.24
2022-11-09T03:09:14.027Z,13.21
2022-11-09T03:11:42.314Z,13.21
2022-11-09T03:14:08.632Z,13.23
2022-11-09T03:16:35.115Z,13.22
2022-11-09T03:19:01.434Z,13.21
2022-11-09T03:21:28.196Z,13.22
2022-11-09T03:23:54.754Z,13.18
2022-11-09T03:26:21.350Z,13.17
2022-11-09T03:28:48.977Z,13.19
2022-11-09T03:31:15.292Z,13.17
2022-11-09T03:33:41.852Z,13.18
2022-11-09T03:36:08.351Z,13.23
2022-11-09T03:38:34.651Z,13.22
2022-11-09T03:41:01.424Z,13.22
2022-11-09T03:43:27.960Z,13.27
2022-11-09T03:45:56.002Z,13.24
2022-11-09T03:48:22.562Z,13.23
2022-11-09T03:50:48.865Z,13.18
2022-11-09T03:53:15.135Z,13.20
2022-11-09T03:55:41.581Z,13.18
2022-11-09T03:58:09.329Z,13.19
2022-11-09T04:00:35.771Z,13.13
2022-11-09T04:03:03.479Z,13.15
2022-11-09T04:05:29.772Z,13.22
2022-11-09T04:07:56.813Z,13.29
2022-11-09T04:10:24.103Z,13.27
2022-11-09T04:12:50.397Z,13.25
2022-11-09T04:15:16.833Z,13.29
2022-11-09T04:17:43.447Z,13.37
2022-11-09T04:20:11.449Z,13.32
2022-11-09T04:22:37.998Z,13.32
2022-11-09T04:25:04.683Z,13.29
2022-11-09T04:27:30.979Z,13.27
2022-11-09T04:29:57.369Z,13.22
2022-11-09T04:32:23.796Z,13.12
2022-11-09T04:34:50.084Z,13.15
2022-11-09T04:37:17.708Z,13.07
2022-11-09T04:39:43.983Z,13.06
2022-11-09T04:42:10.271Z,13.01
2022-11-09T04:44:36.593Z,12.99
2022-11-09T04:47:02.901Z,12.97
2022-11-09T04:49:29.183Z,12.94
2022-11-09T04:51:55.463Z,12.93
2022-11-09T04:54:23.102Z,12.88
2022-11-09T04:56:49.485Z,12.86
2022-11-09T04:59:15.763Z,12.87
2022-11-09T05:01:42.096Z,12.79
2022-11-09T05:04:08.419Z,12.80
2022-11-09T05:06:34.867Z,12.77
2022-11-09T05:09:02.166Z,12.77
2022-11-09T05:11:30.068Z,12.77
2022-11-09T05:13:56.354Z,12.77
2022-11-09T05:16:22.693Z,12.77
2022-11-09T05:18:49.314Z,12.78
2022-11-09T05:21:15.883Z,12.73
2022-11-09T05:23:42.407Z,12.76
2022-11-09T05:26:08.687Z,12.72
2022-11-09T05:28:36.316Z,12.68
2022-11-09T05:31:02.843Z,12.64
2022-11-09T05:33:29.150Z,12.70
2022-11-09T05:35:55.529Z,12.65
2022-11-09T05:38:21.839Z,12.60
2022-11-09T05:40:48.143Z,12.58
2022-11-09T05:43:14.417Z,12.55
2022-11-09T05:45:43.937Z,12.53
2022-11-09T05:48:10.887Z,12.52
2022-11-09T05:50:37.582Z,12.50
2022-11-09T05:53:03.942Z,12.51
2022-11-09T05:55:30.322Z,12.53
2022-11-09T05:57:56.636Z,12.50
2022-11-09T06:00:23.053Z,12.50
2022-11-09T06:02:50.950Z,12.45
2022-11-09T06:05:17.320Z,12.45
2022-11-09T06:07:43.612Z,12.46
2022-11-09T06:10:10.053Z,12.42
2022-11-09T06:12:36.358Z,12.37
2022-11-09T06:15:02.785Z,12.34
2022-11-09T06:17:29.083Z,12.34
2022-11-09T06:19:56.683Z,12.35
2022-11-09T06:22:23.051Z,12.33
2022-11-09T06:24:49.388Z,12.28
2022-11-09T06:27:15.682Z,12.28
2022-11-09T06:29:41.957Z,12.23
2022-11-09T06:32:08.259Z,12.20
2022-11-09T06:34:34.542Z,12.22
2022-11-09T06:37:02.174Z,12.20
2022-11-09T06:39:28.489Z,12.16
2022-11-09T06:41:54.786Z,12.14
2022-11-09T06:44:21.068Z,12.14
2022-11-09T06:46:47.349Z,12.12
2022-11-09T06:49:13.672Z,12.10
2022-11-09T06:51:40.015Z,12.05
2022-11-09T06:54:07.655Z,12.03
2022-11-09T06:56:33.945Z,12.04
2022-11-09T06:59:00.239Z,12.01
2022-11-09T07:01:27.680Z,12.04
2022-11-09T07:03:54.018Z,12.04
2022-11-09T07:06:20.678Z,12.02
2022-11-09T07:08:47.166Z,12.02
2022-11-09T07:11:15.213Z,12.08
2022-11-09T07:13:41.659Z,12.02
2022-11-09T07:16:08.370Z,12.04
2022-11-09T07:18:34.637Z,12.07
2022-11-09T07:21:03.860Z,12.03
2022-11-09T07:23:30.155Z,12.05
2022-11-09T07:25:57.923Z,12.05
2022-11-09T07:28:25.546Z,12.02
2022-11-09T07:30:51.855Z,12.04
2022-11-09T07:33:18.853Z,12.08
2022-11-09T07:35:45.470Z,12.15
2022-11-09T07:38:11.968Z,12.17
2022-11-09T07:40:38.322Z,12.15
2022-11-09T07:43:05.845Z,12.19
2022-11-09T07:45:34.344Z,12.18
2022-11-09T07:48:01.854Z,12.23
2022-11-09T07:50:28.962Z,12.23
2022-11-09T07:52:55.445Z,12.27
2022-11-09T07:55:21.778Z,12.28
2022-11-09T07:57:48.098Z,12.33
2022-11-09T08:00:16.926Z,12.39
2022-11-09T08:02:49.808Z,12.40
2022-11-09T08:05:16.390Z,12.43
2022-11-09T08:07:42.675Z,12.47
2022-11-09T08:10:09.457Z,12.49
2022-11-09T08:12:37.291Z,12.59
2022-11-09T08:15:04.143Z,12.57
2022-11-09T08:17:30.985Z,12.57
2022-11-09T08:19:58.639Z,12.64
2022-11-09T08:22:24.925Z,12.60
2022-11-09T08:24:51.218Z,12.67
2022-11-09T08:27:17.517Z,12.71
2022-11-09T08:29:44.599Z,12.70
2022-11-09T08:32:10.875Z,12.76
2022-11-09T08:34:37.190Z,12.80
2022-11-09T08:37:04.829Z,12.82
2022-11-09T08:39:31.173Z,12.87
2022-11-09T08:41:57.468Z,12.91
2022-11-09T08:44:23.746Z,12.87
2022-11-09T08:46:50.051Z,12.87
2022-11-09T08:49:16.369Z,12.87
2022-11-09T08:51:42.659Z,12.84
2022-11-09T08:54:10.283Z,12.86
2022-11-09T08:56:36.566Z,12.89
2022-11-09T08:59:02.867Z,12.93
2022-11-09T09:01:29.247Z,12.89
2022-11-09T09:03:55.544Z,12.90
2022-11-09T09:06:22.642Z,12.88
2022-11-09T09:08:51.008Z,12.93
2022-11-09T09:11:18.746Z,12.95
2022-11-09T09:13:45.046Z,13.00
2022-11-09T09:16:12.476Z,13.06
2022-11-09T09:18:38.794Z,13.10
2022-11-09T09:21:05.843Z,13.15
2022-11-09T09:23:32.142Z,13.13
2022-11-09T09:25:58.800Z,13.21
2022-11-09T09:28:26.561Z,13.25
2022-11-09T09:30:52.858Z,13.33
2022-11-09T09:33:19.162Z,13.47
2022-11-09T09:35:45.459Z,13.55
2022-11-09T09:38:11.771Z,13.65
2022-11-09T09:40:40.848Z,13.78
2022-11-09T09:43:12.487Z,13.84
2022-11-09T09:45:48.807Z,13.92
2022-11-09T09:48:19.150Z,13.91
2022-11-09T09:50:48.909Z,13.91
2022-11-09T09:53:24.106Z,13.90
2022-11-09T09:55:53.808Z,13.85
2022-11-09T09:58:23.716Z,13.89
2022-11-09T10:00:52.155Z,13.93
2022-11-09T10:03:19.610Z,13.92
2022-11-09T10:05:48.363Z,13.99
2022-11-09T10:08:21.254Z,14.09
2022-11-09T10:10:54.184Z,14.09
2022-11-09T10:13:34.176Z,14.16
2022-11-09T10:16:06.907Z,14.23
2022-11-09T10:18:37.788Z,14.29
2022-11-09T10:21:15.789Z,14.41
2022-11-09T10:23:48.348Z,14.43
2022-11-09T10:26:17.372Z,14.47
2022-11-09T10:29:14.336Z,14.47
2022-11-09T10:31:34.101Z,14.57
2022-11-09T10:34:03.366Z,14.58
2022-11-09T10:36:33.181Z,14.66
2022-11-09T10:39:00.959Z,14.71
2022-11-09T10:41:29.743Z,14.67
2022-11-09T10:43:56.049Z,14.70
2022-11-09T10:46:22.467Z,14.74
2022-11-09T10:48:50.708Z,14.84
2022-11-09T10:51:31.342Z,14.81
2022-11-09T10:54:12.519Z,14.80
2022-11-09T10:57:04.860Z,14.85
2022-11-09T10:59:43.482Z,14.84
2022-11-09T11:02:38.927Z,14.82
2022-11-09T11:05:26.165Z,14.81
2022-11-09T11:07:53.838Z,14.83
2022-11-09T11:10:20.845Z,14.72
2022-11-09T11:12:52.655Z,14.75
2022-11-09T11:15:22.349Z,14.84
2022-11-09T11:17:48.725Z,14.82
2022-11-09T11:20:25.591Z,14.87
2022-11-09T11:23:05.477Z,14.87
2022-11-09T11:25:31.877Z,14.96
2022-11-09T11:28:03.172Z,14.88
2022-11-09T11:30:32.718Z,14.91
2022-11-09T11:32:59.040Z,14.97
2022-11-09T11:35:31.027Z,14.94
2022-11-09T11:38:05.182Z,14.92
2022-11-09T11:40:33.337Z,15.00
2022-11-09T11:43:18.862Z,15.03
2022-11-09T11:45:49.450Z,15.02
2022-11-09T11:48:23.683Z,15.07
2022-11-09T11:50:51.672Z,15.05
2022-11-09T11:53:25.844Z,14.97
2022-11-09T11:56:02.468Z,15.00
2022-11-09T11:58:34.910Z,14.99
2022-11-09T12:01:06.231Z,14.99
2022-11-09T12:03:50.756Z,14.99
2022-11-09T12:06:23.559Z,14.90
2022-11-09T12:09:04.764Z,14.92
2022-11-09T12:11:38.895Z,14.84
2022-11-09T12:14:11.327Z,14.93
2022-11-09T12:16:41.532Z,14.88
2022-11-09T12:19:16.820Z,14.83
2022-11-09T12:21:47.625Z,14.84
2022-11-09T12:24:19.212Z,14.83
2022-11-09T12:27:10.880Z,14.81
2022-11-09T12:29:46.832Z,14.77
2022-11-09T12:32:21.370Z,14.83
2022-11-09T12:34:51.322Z,14.86
2022-11-09T12:37:20.200Z,14.87
2022-11-09T12:39:47.270Z,14.82
2022-11-09T12:42:18.319Z,14.79
2022-11-09T12:44:46.830Z,14.71
2022-11-09T12:47:15.573Z,14.70
2022-11-09T12:49:44.049Z,14.74
2022-11-09T12:52:11.898Z,14.69
2022-11-09T12:54:41.055Z,14.66
2022-11-09T12:57:09.110Z,14.67
2022-11-09T12:59:44.282Z,14.70
2022-11-09T13:02:19.547Z,14.57
2022-11-09T13:04:54.196Z,14.46
2022-11-09T13:07:31.385Z,14.38
2022-11-09T13:09:59.224Z,14.21
2022-11-09T13:12:32.972Z,14.15
2022-11-09T13:15:20.807Z,14.16
2022-11-09T13:17:57.889Z,14.17
2022-11-09T13:20:56.789Z,14.18
2022-11-09T13:23:41.813Z,14.16
2022-11-09T13:26:21.065Z,14.10
2022-11-09T13:29:08.314Z,14.08
2022-11-09T13:31:53.167Z,13.97
2022-11-09T13:34:42.313Z,13.90
2022-11-09T13:37:27.513Z,13.84
2022-11-09T13:39:53.812Z,13.82
2022-11-09T13:42:27.586Z,13.84
2022-11-09T13:44:54.084Z,13.83
2022-11-09T13:47:21.734Z,13.88
2022-11-09T13:49:50.167Z,13.89
2022-11-09T13:52:49.369Z,13.88
2022-11-09T13:55:18.203Z,13.83
2022-11-09T13:57:45.432Z,13.95
2022-11-09T14:00:15.263Z,14.04
2022-11-09T14:02:51.559Z,14.05
2022-11-09T14:05:27.043Z,14.04
2022-11-09T14:07:54.224Z,14.04
2022-11-09T14:10:23.771Z,14.05
2022-11-09T14:13:06.951Z,14.02
2022-11-09T14:15:39.702Z,13.93
2022-11-09T14:18:12.302Z,13.87
2022-11-09T14:20:41.589Z,13.86
2022-11-09T14:23:15.116Z,13.81
2022-11-09T14:25:41.493Z,13.78
2022-11-09T14:28:19.333Z,13.76
2022-11-09T14:30:45.992Z,13.73
2022-11-09T14:33:19.821Z,13.72
2022-11-09T14:35:47.564Z,13.69
2022-11-09T14:38:16.035Z,13.65
2022-11-09T14:40:44.420Z,13.63
2022-11-09T14:43:17.655Z,13.58
2022-11-09T14:45:47.281Z,13.54
2022-11-09T14:48:17.036Z,13.59
2022-11-09T14:50:43.362Z,13.55
2022-11-09T14:53:14.925Z,13.51
2022-11-09T14:55:41.333Z,13.48
2022-11-09T14:58:11.077Z,13.48
2022-11-09T15:00:40.728Z,13.45
2022-11-09T15:03:24.908Z,13.55
2022-11-09T15:06:02.474Z,13.77
2022-11-09T15:08:30.403Z,13.97
2022-11-09T15:10:57.029Z,14.05
2022-11-09T15:13:28.931Z,14.02
2022-11-09T15:15:55.390Z,13.97
2022-11-09T15:18:27.792Z,13.78
2022-11-09T15:21:14.292Z,13.66
2022-11-09T15:23:43.488Z,13.53
2022-11-09T15:26:33.869Z,13.38
2022-11-09T15:29:00.449Z,13.21
2022-11-09T15:31:26.834Z,13.20
2022-11-09T15:33:54.080Z,13.13
2022-11-09T15:36:22.478Z,13.07
2022-11-09T15:38:56.822Z,13.02
2022-11-09T15:41:23.880Z,12.97
2022-11-09T15:43:50.239Z,12.93
2022-11-09T15:46:17.773Z,12.93
2022-11-09T15:48:46.061Z,12.90
2022-11-09T15:51:12.971Z,12.85
2022-11-09T15:53:39.547Z,12.84
2022-11-09T15:56:10.517Z,12.83
2022-11-09T15:58:36.817Z,12.73
2022-11-09T16:01:03.152Z,12.71
2022-11-09T16:03:29.466Z,12.71
2022-11-09T16:05:55.814Z,12.67
2022-11-09T16:08:22.517Z,12.63
2022-11-09T16:10:49.235Z,12.60
2022-11-09T16:13:16.914Z,12.57
2022-11-09T16:15:43.195Z,12.51
2022-11-09T16:18:10.794Z,12.51
2022-11-09T16:20:37.202Z,12.43
2022-11-09T16:23:03.516Z,12.41
2022-11-09T16:25:29.865Z,12.36
2022-11-09T16:27:56.176Z,12.32
2022-11-09T16:30:23.830Z,12.28
2022-11-09T16:32:50.135Z,12.24
2022-11-09T16:35:27.389Z,12.20
2022-11-09T16:37:54.260Z,12.17
2022-11-09T16:40:21.060Z,12.12
2022-11-09T16:42:47.905Z,12.11
2022-11-09T16:45:15.962Z,12.07
2022-11-09T16:47:45.844Z,12.05
2022-11-09T16:50:12.206Z,12.01
2022-11-09T16:52:38.508Z,11.97
2022-11-09T16:55:05.252Z,11.98
2022-11-09T16:57:31.539Z,11.97
2022-11-09T16:59:57.811Z,11.94
2022-11-09T17:02:24.619Z,11.93
2022-11-09T17:04:52.840Z,11.90
2022-11-09T17:07:19.534Z,11.92
2022-11-09T17:09:45.868Z,11.89
2022-11-09T17:12:12.169Z,11.84
2022-11-09T17:14:38.458Z,11.82
2022-11-09T17:17:04.728Z,11.80
2022-11-09T17:19:31.114Z,11.76
2022-11-09T17:21:58.788Z,11.75
2022-11-09T17:24:25.228Z,11.72
2022-11-09T17:26:51.520Z,11.68
2022-11-09T17:29:17.982Z,11.67
2022-11-09T17:31:44.317Z,11.65
2022-11-09T17:34:10.714Z,11.60
2022-11-09T17:37:02.528Z,11.57
2022-11-09T17:39:24.637Z,11.56
2022-11-09T17:41:50.943Z,11.56
2022-11-09T17:44:17.334Z,11.53
2022-11-09T17:46:43.639Z,11.51
2022-11-09T17:49:10.635Z,11.50
2022-11-09T17:51:37.233Z,11.48
2022-11-09T17:54:03.957Z,11.48
2022-11-09T17:56:32.663Z,11.47
2022-11-09T17:58:58.935Z,11.46
2022-11-09T18:01:25.255Z,11.46
2022-11-09T18:03:51.606Z,11.47
2022-11-09T18:06:19.123Z,11.43
2022-11-09T18:08:45.688Z,11.39
2022-11-09T18:11:12.602Z,11.38
2022-11-09T18:13:40.642Z,11.35
2022-11-09T18:16:07.091Z,11.33
2022-11-09T18:18:33.391Z,11.28
2022-11-09T18:21:04.693Z,11.27
2022-11-09T18:23:30.972Z,11.27
2022-11-09T18:25:57.398Z,11.25
2022-11-09T18:28:23.859Z,11.23
2022-11-09T18:30:51.486Z,11.24
2022-11-09T18:33:18.354Z,11.21
2022-11-09T18:35:44.639Z,11.22
2022-11-09T18:38:13.179Z,11.16
2022-11-09T18:40:39.820Z,11.14
2022-11-09T18:43:06.108Z,11.13
2022-11-09T18:45:32.396Z,11.12
2022-11-09T18:48:00.070Z,11.08
2022-11-09T18:50:26.386Z,11.07
2022-11-09T18:52:52.677Z,11.10
2022-11-09T18:55:19.001Z,11.09
2022-11-09T18:57:45.320Z,11.07
2022-11-09T19:00:12.289Z,11.06
2022-11-09T19:02:38.575Z,11.04
2022-11-09T19:05:06.629Z,11.03
2022-11-09T19:07:32.909Z,11.03
2022-11-09T19:09:59.193Z,11.02
2022-11-09T19:12:25.490Z,11.00
2022-11-09T19:14:51.767Z,10.95
2022-11-09T19:17:18.073Z,10.93
2022-11-09T19:19:44.976Z,10.95
2022-11-09T19:22:15.016Z,10.92
2022-11-09T19:24:41.381Z,10.91
2022-11-09T19:27:07.712Z,10.89
2022-11-09T19:29:34.026Z,10.88
2022-11-09T19:32:00.335Z,10.86
2022-11-09T19:34:26.674Z,10.82
2022-11-09T19:36:53.053Z,10.80
2022-11-09T19:39:20.721Z,10.79
2022-11-09T19:41:47.011Z,10.74
2022-11-09T19:44:13.362Z,10.74
2022-11-09T19:46:39.801Z,10.72
2022-11-09T19:49:06.126Z,10.71
2022-11-09T19:51:32.628Z,10.68
2022-11-09T19:53:59.525Z,10.66
2022-11-09T19:56:28.389Z,10.64
2022-11-09T19:58:55.431Z,10.64
2022-11-09T20:01:22.229Z,10.62
2022-11-09T20:03:48.911Z,10.63
2022-11-09T20:06:15.300Z,10.58
2022-11-09T20:08:41.695Z,10.56
2022-11-09T20:11:08.930Z,10.53
2022-11-09T20:13:37.247Z,10.51
2022-11-09T20:16:04.087Z,10.49
2022-11-09T20:18:30.485Z,10.51
2022-11-09T20:20:56.758Z,10.46
2022-11-09T20:23:23.072Z,10.43
2022-11-09T20:25:49.370Z,10.41
2022-11-09T20:28:15.660Z,10.41
2022-11-09T20:30:43.284Z,10.39
2022-11-09T20:33:11.664Z,10.37
2022-11-09T20:35:40.667Z,10.34
2022-11-09T20:38:09.242Z,10.32
2022-11-09T20:40:35.534Z,10.31
2022-11-09T20:43:01.831Z,10.30
2022-11-09T20:45:28.110Z,10.26
2022-11-09T20:48:10.509Z,10.21
2022-11-09T20:50:42.024Z,10.22
2022-11-09T20:53:08.328Z,10.18
2022-11-09T20:55:35.988Z,10.18
2022-11-09T20:58:02.283Z,10.17
2022-11-09T21:00:28.577Z,10.15
2022-11-09T21:02:56.190Z,10.13
2022-11-09T21:05:22.479Z,10.11
2022-11-09T21:07:48.823Z,10.07
2022-11-09T21:10:15.185Z,10.07
2022-11-09T21:12:41.466Z,10.05
2022-11-09T21:15:10.915Z,10.04
2022-11-09T21:17:37.188Z,10.03
2022-11-09T21:20:05.413Z,10.00
2022-11-09T21:22:31.678Z,9.98
2022-11-09T21:24:57.963Z,9.98
2022-11-09T21:27:24.268Z,9.95
2022-11-09T21:29:50.546Z,9.96
2022-11-09T21:32:17.545Z,9.95
2022-11-09T21:34:43.877Z,9.92
2022-11-09T21:37:11.835Z,9.89
2022-11-09T21:39:38.131Z,9.86
2022-11-09T21:42:04.679Z,9.86
2022-11-09T21:44:31.768Z,9.85
2022-11-09T21:46:58.553Z,9.84
2022-11-09T21:49:24.869Z,9.82
2022-11-09T21:51:51.179Z,9.81
2022-11-09T21:54:18.832Z,9.80
2022-11-09T21:56:46.623Z,9.79
2022-11-09T21:59:12.909Z,9.78
2022-11-09T22:01:39.281Z,9.77
2022-11-09T22:04:05.662Z,9.74
2022-11-09T22:06:32.002Z,9.73
2022-11-09T22:08:58.340Z,9.72
2022-11-09T22:11:26.733Z,9.73
2022-11-09T22:13:53.014Z,9.73
2022-11-09T22:16:19.839Z,9.75
2022-11-09T22:18:49.737Z,9.73
2022-11-09T22:21:16.195Z,9.73
2022-11-09T22:23:42.497Z,9.70
2022-11-09T22:26:08.793Z,9.67
2022-11-09T22:28:36.386Z,9.66
2022-11-09T22:31:03.156Z,9.68
2022-11-09T22:33:29.689Z,9.65
2022-11-09T22:35:56.675Z,9.64
2022-11-09T22:38:22.966Z,9.64
2022-11-09T22:40:49.326Z,9.61
2022-11-09T22:43:15.823Z,9.61
2022-11-09T22:45:43.454Z,9.60
2022-11-09T22:48:09.757Z,9.59
2022-11-09T22:50:36.302Z,9.56
2022-11-09T22:53:04.085Z,9.55
2022-11-09T22:55:31.293Z,9.56
2022-11-09T22:57:57.591Z,9.54
2022-11-09T23:00:24.048Z,9.53
2022-11-09T23:02:51.712Z,9.50
2022-11-09T23:05:17.986Z,9.48
2022-11-09T23:07:44.248Z,9.46
2022-11-09T23:10:10.537Z,9.42
2022-11-09T23:12:36.850Z,9.41
2022-11-09T23:15:03.285Z,9.40
2022-11-09T23:17:30.042Z,9.37
2022-11-09T23:19:57.647Z,9.36
2022-11-09T23:22:24.000Z,9.35
2022-11-09T23:24:50.269Z,9.35
2022-11-09T23:27:16.557Z,9.33
2022-11-09T23:29:42.836Z,9.32
2022-11-09T23:32:09.119Z,9.32
2022-11-09T23:34:35.409Z,9.30
2022-11-09T23:37:03.017Z,9.29
2022-11-09T23:39:29.312Z,9.29
2022-11-09T23:41:55.601Z,9.29
2022-11-09T23:44:21.883Z,9.28
2022-11-09T23:46:48.142Z,9.28
2022-11-09T23:49:14.431Z,9.26
2022-11-09T23:51:40.733Z,9.27
2022-11-09T23:54:08.339Z,9.26
2022-11-09T23:56:34.636Z,9.25
2022-11-09T23:59:01.028Z,9.24
